sensor_id;sensor_type;location;lat;lon;timestamp;pressure;altitude;pressure_sealevel;temperature;humidity
12879;BME280;20617;49.476;10.986;2022-09-28T00:00:47;96720.78;;;9.93;100.00
12879;BME280;20617;49.476;10.986;2022-09-28T00:02:53;96718.81;;;9.97;100.00
12879;BME280;20617;49.476;10.986;2022-09-28T00:04:59;96708.41;;;9.97;100.00
12879;BME280;20617;49.476;10.986;2022-09-28T00:07:04;96715.19;;;10.00;100.00
12879;BME280;20617;49.476;10.986;2022-09-28T00:09:09;96710.72;;;10.02;100.00
12879;BME280;20617;49.476;10.986;2022-09-28T00:11:14;96710.72;;;10.02;100.00
12879;BME280;20617;49.476;10.986;2022-09-28T00:13:19;96705.41;;;10.03;100.00
12879;BME280;20617;49.476;10.986;2022-09-28T00:15:24;96709.69;;;10.04;100.00
12879;BME280;20617;49.476;10.986;2022-09-28T00:17:32;96695.00;;;10.03;100.00
12879;BME280;20617;49.476;10.986;2022-09-28T00:19:37;96687.22;;;10.03;100.00
12879;BME280;20617;49.476;10.986;2022-09-28T00:21:43;96685.56;;;10.02;100.00
12879;BME280;20617;49.476;10.986;2022-09-28T00:23:51;96682.97;;;10.02;100.00
12879;BME280;20617;49.476;10.986;2022-09-28T00:26:08;96684.72;;;10.02;100.00
12879;BME280;20617;49.476;10.986;2022-09-28T00:28:13;96678.03;;;9.97;100.00
12879;BME280;20617;49.476;10.986;2022-09-28T00:30:18;96674.53;;;9.98;100.00
12879;BME280;20617;49.476;10.986;2022-09-28T00:32:23;96668.50;;;9.98;100.00
12879;BME280;20617;49.476;10.986;2022-09-28T00:34:32;96665.16;;;9.96;100.00
12879;BME280;20617;49.476;10.986;2022-09-28T00:36:37;96666.94;;;9.95;100.00
12879;BME280;20617;49.476;10.986;2022-09-28T00:38:42;96668.50;;;9.98;100.00
12879;BME280;20617;49.476;10.986;2022-09-28T00:40:47;96659.44;;;9.91;100.00
12879;BME280;20617;49.476;10.986;2022-09-28T00:42:52;96654.75;;;9.96;100.00
12879;BME280;20617;49.476;10.986;2022-09-28T00:44:57;96657.56;;;9.93;100.00
12879;BME280;20617;49.476;10.986;2022-09-28T00:47:08;96641.56;;;9.86;100.00
12879;BME280;20617;49.476;10.986;2022-09-28T00:49:20;96648.59;;;9.84;100.00
12879;BME280;20617;49.476;10.986;2022-09-28T00:51:31;96639.22;;;9.82;100.00
12879;BME280;20617;49.476;10.986;2022-09-28T00:53:39;96647.78;;;9.84;100.00
12879;BME280;20617;49.476;10.986;2022-09-28T00:55:49;96649.34;;;9.86;100.00
12879;BME280;20617;49.476;10.986;2022-09-28T00:57:57;96644.66;;;9.91;100.00
12879;BME280;20617;49.476;10.986;2022-09-28T01:00:05;96642.72;;;9.95;100.00
12879;BME280;20617;49.476;10.986;2022-09-28T01:02:10;96633.97;;;9.96;100.00
12879;BME280;20617;49.476;10.986;2022-09-28T01:04:16;96622.53;;;9.98;100.00
12879;BME280;20617;49.476;10.986;2022-09-28T01:06:21;96627.13;;;9.95;100.00
12879;BME280;20617;49.476;10.986;2022-09-28T01:08:31;96627.22;;;9.93;100.00
12879;BME280;20617;49.476;10.986;2022-09-28T01:10:38;96613.19;;;9.96;100.00
12879;BME280;20617;49.476;10.986;2022-09-28T01:12:44;96608.19;;;9.93;100.00
12879;BME280;20617;49.476;10.986;2022-09-28T01:14:49;96605.38;;;9.96;100.00
12879;BME280;20617;49.476;10.986;2022-09-28T01:17:01;96605.38;;;9.96;100.00
12879;BME280;20617;49.476;10.986;2022-09-28T01:19:26;96602.16;;;9.92;100.00
12879;BME280;20617;49.476;10.986;2022-09-28T01:21:45;96598.81;;;9.90;100.00
12879;BME280;20617;49.476;10.986;2022-09-28T01:24:12;96585.63;;;9.93;100.00
12879;BME280;20617;49.476;10.986;2022-09-28T01:26:41;96576.16;;;9.92;100.00
12879;BME280;20617;49.476;10.986;2022-09-28T01:28:58;96575.63;;;9.87;100.00
12879;BME280;20617;49.476;10.986;2022-09-28T01:31:09;96563.38;;;9.89;100.00
12879;BME280;20617;49.476;10.986;2022-09-28T01:33:19;96553.59;;;9.93;100.00
12879;BME280;20617;49.476;10.986;2022-09-28T01:35:30;96550.06;;;9.94;100.00
12879;BME280;20617;49.476;10.986;2022-09-28T01:37:41;96550.25;;;9.91;100.00
12879;BME280;20617;49.476;10.986;2022-09-28T01:39:50;96545.81;;;9.93;100.00
12879;BME280;20617;49.476;10.986;2022-09-28T01:42:03;96545.69;;;9.94;100.00
12879;BME280;20617;49.476;10.986;2022-09-28T01:44:13;96540.28;;;9.97;100.00
12879;BME280;20617;49.476;10.986;2022-09-28T01:46:21;96524.81;;;9.96;100.00
12879;BME280;20617;49.476;10.986;2022-09-28T01:48:31;96531.66;;;9.97;100.00
12879;BME280;20617;49.476;10.986;2022-09-28T01:50:41;96522.94;;;9.98;100.00
12879;BME280;20617;49.476;10.986;2022-09-28T01:52:51;96521.03;;;10.00;100.00
12879;BME280;20617;49.476;10.986;2022-09-28T01:55:02;96525.31;;;10.01;100.00
12879;BME280;20617;49.476;10.986;2022-09-28T01:57:15;96515.13;;;9.98;100.00
12879;BME280;20617;49.476;10.986;2022-09-28T01:59:24;96510.44;;;10.03;100.00
12879;BME280;20617;49.476;10.986;2022-09-28T02:01:36;96492.97;;;10.05;100.00
12879;BME280;20617;49.476;10.986;2022-09-28T02:03:47;96501.50;;;10.07;100.00
12879;BME280;20617;49.476;10.986;2022-09-28T02:05:56;96503.78;;;10.12;100.00
12879;BME280;20617;49.476;10.986;2022-09-28T02:08:05;96498.28;;;10.16;100.00
12879;BME280;20617;49.476;10.986;2022-09-28T02:10:16;96499.09;;;10.17;100.00
12879;BME280;20617;49.476;10.986;2022-09-28T02:12:30;96493.81;;;10.18;100.00
12879;BME280;20617;49.476;10.986;2022-09-28T02:14:38;96495.47;;;10.19;100.00
12879;BME280;20617;49.476;10.986;2022-09-28T02:16:46;96490.69;;;10.13;100.00
12879;BME280;20617;49.476;10.986;2022-09-28T02:18:59;96490.06;;;10.10;100.00
12879;BME280;20617;49.476;10.986;2022-09-28T02:21:11;96486.63;;;10.09;100.00
12879;BME280;20617;49.476;10.986;2022-09-28T02:23:18;96475.72;;;10.04;100.00
12879;BME280;20617;49.476;10.986;2022-09-28T02:25:29;96472.41;;;10.02;100.00
12879;BME280;20617;49.476;10.986;2022-09-28T02:27:44;96475.72;;;10.04;100.00
12879;BME280;20617;49.476;10.986;2022-09-28T02:29:51;96473.94;;;10.05;100.00
12879;BME280;20617;49.476;10.986;2022-09-28T02:31:55;96468.13;;;10.01;100.00
12879;BME280;20617;49.476;10.986;2022-09-28T02:34:01;96468.97;;;10.02;100.00
12879;BME280;20617;49.476;10.986;2022-09-28T02:36:06;96466.66;;;9.97;100.00
12879;BME280;20617;49.476;10.986;2022-09-28T02:38:13;96462.28;;;9.97;100.00
12879;BME280;20617;49.476;10.986;2022-09-28T02:40:22;96461.38;;;9.98;100.00
12879;BME280;20617;49.476;10.986;2022-09-28T02:42:34;96458.88;;;9.97;100.00
12879;BME280;20617;49.476;10.986;2022-09-28T02:44:59;96459.00;;;9.95;100.00
12879;BME280;20617;49.476;10.986;2022-09-28T02:47:14;96465.00;;;9.96;100.00
12879;BME280;20617;49.476;10.986;2022-09-28T02:49:26;96453.88;;;9.94;100.00
12879;BME280;20617;49.476;10.986;2022-09-28T02:51:41;96459.00;;;9.95;100.00
12879;BME280;20617;49.476;10.986;2022-09-28T02:54:12;96454.91;;;9.91;100.00
12879;BME280;20617;49.476;10.986;2022-09-28T02:56:49;96463.03;;;9.87;100.00
12879;BME280;20617;49.476;10.986;2022-09-28T02:59:05;96479.78;;;9.83;100.00
12879;BME280;20617;49.476;10.986;2022-09-28T03:01:22;96476.84;;;9.62;100.00
12879;BME280;20617;49.476;10.986;2022-09-28T03:03:35;96478.16;;;9.42;100.00
12879;BME280;20617;49.476;10.986;2022-09-28T03:05:52;96472.16;;;9.41;100.00
12879;BME280;20617;49.476;10.986;2022-09-28T03:08:02;96457.50;;;9.53;100.00
12879;BME280;20617;49.476;10.986;2022-09-28T03:10:14;96454.41;;;9.61;100.00
12879;BME280;20617;49.476;10.986;2022-09-28T03:12:22;96445.16;;;9.69;100.00
12879;BME280;20617;49.476;10.986;2022-09-28T03:14:30;96441.13;;;9.78;100.00
12879;BME280;20617;49.476;10.986;2022-09-28T03:16:41;96444.25;;;9.83;100.00
12879;BME280;20617;49.476;10.986;2022-09-28T03:18:47;96438.19;;;9.83;100.00
12879;BME280;20617;49.476;10.986;2022-09-28T03:20:52;96427.38;;;9.89;100.00
12879;BME280;20617;49.476;10.986;2022-09-28T03:22:57;96425.28;;;9.94;100.00
12879;BME280;20617;49.476;10.986;2022-09-28T03:25:22;96415.41;;;9.99;100.00
12879;BME280;20617;49.476;10.986;2022-09-28T03:27:26;96413.22;;;10.06;100.00
12879;BME280;20617;49.476;10.986;2022-09-28T03:29:32;96413.13;;;10.07;100.00
12879;BME280;20617;49.476;10.986;2022-09-28T03:31:42;96410.63;;;10.06;100.00
12879;BME280;20617;49.476;10.986;2022-09-28T03:33:50;96401.38;;;10.02;100.00
12879;BME280;20617;49.476;10.986;2022-09-28T03:35:55;96397.00;;;10.02;100.00
12879;BME280;20617;49.476;10.986;2022-09-28T03:38:00;96397.13;;;10.01;100.00
12879;BME280;20617;49.476;10.986;2022-09-28T03:40:08;96396.50;;;9.97;100.00
12879;BME280;20617;49.476;10.986;2022-09-28T03:42:13;96392.75;;;9.88;100.00
12879;BME280;20617;49.476;10.986;2022-09-28T03:44:22;96392.16;;;9.85;100.00
12879;BME280;20617;49.476;10.986;2022-09-28T03:46:27;96391.31;;;9.84;100.00
12879;BME280;20617;49.476;10.986;2022-09-28T03:48:40;96388.09;;;9.81;100.00
12879;BME280;20617;49.476;10.986;2022-09-28T03:50:45;96387.81;;;9.72;100.00
12879;BME280;20617;49.476;10.986;2022-09-28T03:52:50;96393.09;;;9.71;100.00
12879;BME280;20617;49.476;10.986;2022-09-28T03:54:55;96386.31;;;9.68;100.00
12879;BME280;20617;49.476;10.986;2022-09-28T03:57:00;96386.97;;;9.72;100.00
12879;BME280;20617;49.476;10.986;2022-09-28T03:59:06;96384.16;;;9.75;100.00
12879;BME280;20617;49.476;10.986;2022-09-28T04:01:12;96379.78;;;9.75;100.00
12879;BME280;20617;49.476;10.986;2022-09-28T04:03:21;96366.88;;;9.74;100.00
12879;BME280;20617;49.476;10.986;2022-09-28T04:05:29;96369.09;;;9.67;100.00
12879;BME280;20617;49.476;10.986;2022-09-28T04:07:34;96363.91;;;9.67;100.00
12879;BME280;20617;49.476;10.986;2022-09-28T04:09:39;96368.16;;;9.68;100.00
12879;BME280;20617;49.476;10.986;2022-09-28T04:11:43;96356.84;;;9.69;100.00
12879;BME280;20617;49.476;10.986;2022-09-28T04:14:05;96352.34;;;9.71;100.00
12879;BME280;20617;49.476;10.986;2022-09-28T04:16:10;96347.16;;;9.71;100.00
12879;BME280;20617;49.476;10.986;2022-09-28T04:18:23;96342.69;;;9.73;100.00
12879;BME280;20617;49.476;10.986;2022-09-28T04:20:47;96348.91;;;9.71;100.00
12879;BME280;20617;49.476;10.986;2022-09-28T04:22:51;96340.09;;;9.73;100.00
12879;BME280;20617;49.476;10.986;2022-09-28T04:24:56;96340.59;;;9.79;100.00
12879;BME280;20617;49.476;10.986;2022-09-28T04:27:01;96334.97;;;9.85;100.00
12879;BME280;20617;49.476;10.986;2022-09-28T04:29:19;96329.03;;;9.83;100.00
12879;BME280;20617;49.476;10.986;2022-09-28T04:31:30;96331.44;;;9.86;100.00
12879;BME280;20617;49.476;10.986;2022-09-28T04:33:40;96326.00;;;9.89;100.00
12879;BME280;20617;49.476;10.986;2022-09-28T04:35:48;96323.84;;;9.95;100.00
12879;BME280;20617;49.476;10.986;2022-09-28T04:37:53;96325.25;;;10.00;100.00
12879;BME280;20617;49.476;10.986;2022-09-28T04:39:58;96320.56;;;10.05;100.00
12879;BME280;20617;49.476;10.986;2022-09-28T04:42:04;96341.16;;;10.08;100.00
12879;BME280;20617;49.476;10.986;2022-09-28T04:44:09;96319.19;;;10.12;100.00
12879;BME280;20617;49.476;10.986;2022-09-28T04:46:14;96323.03;;;10.19;100.00
12879;BME280;20617;49.476;10.986;2022-09-28T04:48:31;96315.84;;;10.23;100.00
12879;BME280;20617;49.476;10.986;2022-09-28T04:51:02;96320.22;;;10.22;100.00
12879;BME280;20617;49.476;10.986;2022-09-28T04:53:08;96312.50;;;10.20;100.00
12879;BME280;20617;49.476;10.986;2022-09-28T04:55:13;96312.28;;;10.24;100.00
12879;BME280;20617;49.476;10.986;2022-09-28T04:57:22;96317.38;;;10.25;100.00
12879;BME280;20617;49.476;10.986;2022-09-28T04:59:28;96306.97;;;10.25;100.00
12879;BME280;20617;49.476;10.986;2022-09-28T05:01:34;96302.09;;;10.20;100.00
12879;BME280;20617;49.476;10.986;2022-09-28T05:03:38;96308.97;;;10.22;100.00
12879;BME280;20617;49.476;10.986;2022-09-28T05:06:05;96310.63;;;10.23;100.00
12879;BME280;20617;49.476;10.986;2022-09-28T05:08:15;96308.75;;;10.25;100.00
12879;BME280;20617;49.476;10.986;2022-09-28T05:10:20;96308.75;;;10.25;100.00
12879;BME280;20617;49.476;10.986;2022-09-28T05:12:27;96309.28;;;10.30;100.00
12879;BME280;20617;49.476;10.986;2022-09-28T05:14:33;96300.41;;;10.32;100.00
12879;BME280;20617;49.476;10.986;2022-09-28T05:16:39;96296.06;;;10.33;100.00
12879;BME280;20617;49.476;10.986;2022-09-28T05:18:56;96286.09;;;10.27;100.00
12879;BME280;20617;49.476;10.986;2022-09-28T05:21:08;96294.81;;;10.26;100.00
12879;BME280;20617;49.476;10.986;2022-09-28T05:23:14;96288.69;;;10.27;100.00
12879;BME280;20617;49.476;10.986;2022-09-28T05:25:19;96293.56;;;10.31;100.00
12879;BME280;20617;49.476;10.986;2022-09-28T05:27:37;96288.03;;;10.36;100.00
12879;BME280;20617;49.476;10.986;2022-09-28T05:29:56;96285.22;;;10.39;100.00
12879;BME280;20617;49.476;10.986;2022-09-28T05:32:04;96280.13;;;10.37;100.00
12879;BME280;20617;49.476;10.986;2022-09-28T05:34:13;96281.66;;;10.40;100.00
12879;BME280;20617;49.476;10.986;2022-09-28T05:36:21;96307.44;;;10.43;100.00
12879;BME280;20617;49.476;10.986;2022-09-28T05:38:28;96303.91;;;10.44;100.00
12879;BME280;20617;49.476;10.986;2022-09-28T05:40:32;96298.69;;;10.44;100.00
12879;BME280;20617;49.476;10.986;2022-09-28T05:42:37;96301.94;;;10.48;100.00
12879;BME280;20617;49.476;10.986;2022-09-28T05:44:42;96305.13;;;10.51;100.00
12879;BME280;20617;49.476;10.986;2022-09-28T05:46:47;96300.88;;;10.50;100.00
12879;BME280;20617;49.476;10.986;2022-09-28T05:48:52;96302.63;;;10.50;100.00
12879;BME280;20617;49.476;10.986;2022-09-28T05:50:57;96300.25;;;10.47;100.00
12879;BME280;20617;49.476;10.986;2022-09-28T05:53:06;96304.53;;;10.48;100.00
12879;BME280;20617;49.476;10.986;2022-09-28T05:55:12;96304.63;;;10.46;100.00
12879;BME280;20617;49.476;10.986;2022-09-28T05:57:17;96303.69;;;10.47;100.00
12879;BME280;20617;49.476;10.986;2022-09-28T05:59:22;96290.56;;;10.49;100.00
12879;BME280;20617;49.476;10.986;2022-09-28T06:01:27;96296.09;;;10.44;100.00
12879;BME280;20617;49.476;10.986;2022-09-28T06:03:33;96295.03;;;10.47;100.00
12879;BME280;20617;49.476;10.986;2022-09-28T06:05:38;96283.81;;;10.46;100.00
12879;BME280;20617;49.476;10.986;2022-09-28T06:07:43;96293.41;;;10.46;100.00
12879;BME280;20617;49.476;10.986;2022-09-28T06:09:51;96286.19;;;10.49;100.00
12879;BME280;20617;49.476;10.986;2022-09-28T06:12:10;96295.31;;;10.55;100.00
12879;BME280;20617;49.476;10.986;2022-09-28T06:14:19;96288.00;;;10.60;100.00
12879;BME280;20617;49.476;10.986;2022-09-28T06:16:24;96295.47;;;10.64;100.00
12879;BME280;20617;49.476;10.986;2022-09-28T06:18:29;96283.41;;;10.63;100.00
12879;BME280;20617;49.476;10.986;2022-09-28T06:20:46;96297.00;;;10.67;100.00
12879;BME280;20617;49.476;10.986;2022-09-28T06:22:53;96294.91;;;10.72;100.00
12879;BME280;20617;49.476;10.986;2022-09-28T06:25:01;96309.78;;;10.70;100.00
12879;BME280;20617;49.476;10.986;2022-09-28T06:27:06;96310.19;;;10.77;100.00
12879;BME280;20617;49.476;10.986;2022-09-28T06:29:11;96309.38;;;10.76;100.00
12879;BME280;20617;49.476;10.986;2022-09-28T06:31:21;96311.97;;;10.76;100.00
12879;BME280;20617;49.476;10.986;2022-09-28T06:33:28;96324.63;;;10.81;100.00
12879;BME280;20617;49.476;10.986;2022-09-28T06:35:34;96326.06;;;10.85;100.00
12879;BME280;20617;49.476;10.986;2022-09-28T06:37:43;96332.56;;;10.91;100.00
12879;BME280;20617;49.476;10.986;2022-09-28T06:39:48;96322.75;;;10.83;100.00
12879;BME280;20617;49.476;10.986;2022-09-28T06:41:55;96332.06;;;10.74;100.00
12879;BME280;20617;49.476;10.986;2022-09-28T06:44:25;96326.72;;;10.76;100.00
12879;BME280;20617;49.476;10.986;2022-09-28T06:46:58;96326.91;;;10.61;100.00
12879;BME280;20617;49.476;10.986;2022-09-28T06:49:28;96332.97;;;10.62;100.00
12879;BME280;20617;49.476;10.986;2022-09-28T06:51:53;96326.91;;;10.61;100.00
12879;BME280;20617;49.476;10.986;2022-09-28T06:54:16;96341.16;;;10.69;100.00
12879;BME280;20617;49.476;10.986;2022-09-28T06:56:36;96345.75;;;10.65;100.00
12879;BME280;20617;49.476;10.986;2022-09-28T06:58:43;96343.16;;;10.65;100.00
12879;BME280;20617;49.476;10.986;2022-09-28T07:00:50;96353.34;;;10.68;100.00
12879;BME280;20617;49.476;10.986;2022-09-28T07:02:55;96354.25;;;10.67;100.00
12879;BME280;20617;49.476;10.986;2022-09-28T07:05:19;96351.41;;;10.59;100.00
12879;BME280;20617;49.476;10.986;2022-09-28T07:07:49;96366.44;;;10.67;100.00
12879;BME280;20617;49.476;10.986;2022-09-28T07:10:14;96364.19;;;10.62;100.00
12879;BME280;20617;49.476;10.986;2022-09-28T07:12:37;96366.16;;;10.58;100.00
12879;BME280;20617;49.476;10.986;2022-09-28T07:14:59;96367.13;;;10.57;100.00
12879;BME280;20617;49.476;10.986;2022-09-28T07:17:05;96371.88;;;10.63;100.00
12879;BME280;20617;49.476;10.986;2022-09-28T07:19:15;96374.25;;;10.67;100.00
12879;BME280;20617;49.476;10.986;2022-09-28T07:21:20;96385.63;;;10.65;100.00
12879;BME280;20617;49.476;10.986;2022-09-28T07:23:33;96378.53;;;10.68;100.00
12879;BME280;20617;49.476;10.986;2022-09-28T07:26:02;96374.91;;;10.81;100.00
12879;BME280;20617;49.476;10.986;2022-09-28T07:28:42;96380.34;;;10.78;100.00
12879;BME280;20617;49.476;10.986;2022-09-28T07:31:07;96389.25;;;10.87;100.00
12879;BME280;20617;49.476;10.986;2022-09-28T07:33:39;96389.38;;;10.85;100.00
12879;BME280;20617;49.476;10.986;2022-09-28T07:35:57;96392.75;;;10.75;100.00
12879;BME280;20617;49.476;10.986;2022-09-28T07:38:05;96416.91;;;10.77;100.00
12879;BME280;20617;49.476;10.986;2022-09-28T07:40:11;96417.22;;;10.72;100.00
12879;BME280;20617;49.476;10.986;2022-09-28T07:42:29;96415.34;;;10.74;100.00
12879;BME280;20617;49.476;10.986;2022-09-28T07:44:34;96412.16;;;10.58;100.00
12879;BME280;20617;49.476;10.986;2022-09-28T07:46:44;96400.25;;;10.42;100.00
12879;BME280;20617;49.476;10.986;2022-09-28T07:48:58;96425.66;;;10.26;100.00
12879;BME280;20617;49.476;10.986;2022-09-28T07:51:41;96423.84;;;9.90;100.00
12879;BME280;20617;49.476;10.986;2022-09-28T07:54:12;96428.44;;;9.73;100.00
12879;BME280;20617;49.476;10.986;2022-09-28T07:56:38;96452.31;;;9.53;100.00
12879;BME280;20617;49.476;10.986;2022-09-28T07:58:50;96460.03;;;9.55;100.00
12879;BME280;20617;49.476;10.986;2022-09-28T08:01:15;96465.94;;;9.57;100.00
12879;BME280;20617;49.476;10.986;2022-09-28T08:03:24;96468.31;;;9.60;100.00
12879;BME280;20617;49.476;10.986;2022-09-28T08:05:29;96459.06;;;9.56;100.00
12879;BME280;20617;49.476;10.986;2022-09-28T08:07:36;96456.38;;;9.70;100.00
12879;BME280;20617;49.476;10.986;2022-09-28T08:09:43;96471.69;;;9.74;100.00
12879;BME280;20617;49.476;10.986;2022-09-28T08:12:14;96465.13;;;9.82;100.00
12879;BME280;20617;49.476;10.986;2022-09-28T08:14:31;96460.22;;;9.77;100.00
12879;BME280;20617;49.476;10.986;2022-09-28T08:17:04;96474.28;;;9.87;100.00
12879;BME280;20617;49.476;10.986;2022-09-28T08:19:22;96458.56;;;9.89;100.00
12879;BME280;20617;49.476;10.986;2022-09-28T08:21:27;96466.97;;;10.05;100.00
12879;BME280;20617;49.476;10.986;2022-09-28T08:23:44;96470.63;;;10.15;100.00
12879;BME280;20617;49.476;10.986;2022-09-28T08:25:50;96462.19;;;10.12;100.00
12879;BME280;20617;49.476;10.986;2022-09-28T08:27:57;96461.66;;;10.19;100.00
12879;BME280;20617;49.476;10.986;2022-09-28T08:30:05;96462.28;;;10.23;100.00
12879;BME280;20617;49.476;10.986;2022-09-28T08:32:15;96458.53;;;10.40;100.00
12879;BME280;20617;49.476;10.986;2022-09-28T08:34:41;96455.84;;;10.41;100.00
12879;BME280;20617;49.476;10.986;2022-09-28T08:37:25;96451.69;;;10.39;100.00
12879;BME280;20617;49.476;10.986;2022-09-28T08:39:42;96449.72;;;10.30;100.00
12879;BME280;20617;49.476;10.986;2022-09-28T08:42:02;96453.03;;;10.45;100.00
12879;BME280;20617;49.476;10.986;2022-09-28T08:44:40;96436.16;;;10.37;100.00
12879;BME280;20617;49.476;10.986;2022-09-28T08:47:03;96457.88;;;10.49;100.00
12879;BME280;20617;49.476;10.986;2022-09-28T08:49:22;96439.56;;;10.51;100.00
12879;BME280;20617;49.476;10.986;2022-09-28T08:51:48;96455.34;;;10.60;100.00
12879;BME280;20617;49.476;10.986;2022-09-28T08:54:05;96457.31;;;10.70;100.00
12879;BME280;20617;49.476;10.986;2022-09-28T08:56:38;96453.34;;;10.77;100.00
12879;BME280;20617;49.476;10.986;2022-09-28T08:58:51;96441.69;;;10.70;100.00
12879;BME280;20617;49.476;10.986;2022-09-28T09:01:01;96456.69;;;10.66;100.00
12879;BME280;20617;49.476;10.986;2022-09-28T09:03:11;96458.69;;;10.62;100.00
12879;BME280;20617;49.476;10.986;2022-09-28T09:05:25;96453.34;;;10.77;100.00
12879;BME280;20617;49.476;10.986;2022-09-28T09:07:51;96467.56;;;10.84;100.00
12879;BME280;20617;49.476;10.986;2022-09-28T09:10:08;96466.19;;;10.91;100.00
12879;BME280;20617;49.476;10.986;2022-09-28T09:12:22;96444.13;;;10.84;100.00
12879;BME280;20617;49.476;10.986;2022-09-28T09:14:52;96458.25;;;10.93;100.00
12879;BME280;20617;49.476;10.986;2022-09-28T09:17:04;96466.56;;;10.98;100.00
12879;BME280;20617;49.476;10.986;2022-09-28T09:19:40;96471.88;;;10.96;100.00
12879;BME280;20617;49.476;10.986;2022-09-28T09:21:58;96488.28;;;11.09;100.00
12879;BME280;20617;49.476;10.986;2022-09-28T09:24:17;96470.78;;;11.12;100.00
12879;BME280;20617;49.476;10.986;2022-09-28T09:26:34;96466.91;;;11.28;100.00
12879;BME280;20617;49.476;10.986;2022-09-28T09:29:01;96458.91;;;11.31;100.00
12879;BME280;20617;49.476;10.986;2022-09-28T09:31:26;96463.06;;;11.10;100.00
12879;BME280;20617;49.476;10.986;2022-09-28T09:33:56;96469.72;;;10.90;100.00
12879;BME280;20617;49.476;10.986;2022-09-28T09:36:39;96469.78;;;11.01;100.00
12879;BME280;20617;49.476;10.986;2022-09-28T09:39:19;96469.44;;;11.06;100.00
12879;BME280;20617;49.476;10.986;2022-09-28T09:41:59;96462.91;;;11.00;100.00
12879;BME280;20617;49.476;10.986;2022-09-28T09:44:51;96461.78;;;11.16;100.00
12879;BME280;20617;49.476;10.986;2022-09-28T09:47:22;96459.50;;;11.11;100.00
12879;BME280;20617;49.476;10.986;2022-09-28T09:49:34;96458.69;;;11.10;100.00
12879;BME280;20617;49.476;10.986;2022-09-28T09:51:42;96462.28;;;11.21;100.00
12879;BME280;20617;49.476;10.986;2022-09-28T09:53:53;96465.81;;;11.44;100.00
12879;BME280;20617;49.476;10.986;2022-09-28T09:56:11;96455.00;;;11.72;100.00
12879;BME280;20617;49.476;10.986;2022-09-28T09:58:34;96462.88;;;12.17;100.00
12879;BME280;20617;49.476;10.986;2022-09-28T10:00:54;96459.06;;;12.44;100.00
12879;BME280;20617;49.476;10.986;2022-09-28T10:03:24;96451.31;;;12.65;100.00
12879;BME280;20617;49.476;10.986;2022-09-28T10:05:42;96446.06;;;12.76;100.00
12879;BME280;20617;49.476;10.986;2022-09-28T10:07:54;96440.16;;;12.74;100.00
12879;BME280;20617;49.476;10.986;2022-09-28T10:10:10;96449.41;;;12.67;100.00
12879;BME280;20617;49.476;10.986;2022-09-28T10:12:25;96451.03;;;12.90;100.00
12879;BME280;20617;49.476;10.986;2022-09-28T10:14:29;96448.81;;;13.18;100.00
12879;BME280;20617;49.476;10.986;2022-09-28T10:16:41;96441.91;;;13.17;100.00
12879;BME280;20617;49.476;10.986;2022-09-28T10:18:58;96448.28;;;13.35;100.00
12879;BME280;20617;49.476;10.986;2022-09-28T10:21:22;96443.69;;;13.49;100.00
12879;BME280;20617;49.476;10.986;2022-09-28T10:23:48;96445.53;;;13.37;100.00
12879;BME280;20617;49.476;10.986;2022-09-28T10:25:58;96464.78;;;13.36;100.00
12879;BME280;20617;49.476;10.986;2022-09-28T10:28:13;96460.28;;;13.38;100.00
12879;BME280;20617;49.476;10.986;2022-09-28T10:30:20;96465.41;;;13.49;100.00
12879;BME280;20617;49.476;10.986;2022-09-28T10:32:35;96460.66;;;13.54;100.00
12879;BME280;20617;49.476;10.986;2022-09-28T10:34:41;96460.44;;;13.25;100.00
12879;BME280;20617;49.476;10.986;2022-09-28T10:36:54;96460.69;;;13.11;100.00
12879;BME280;20617;49.476;10.986;2022-09-28T10:39:22;96472.59;;;13.04;100.00
12879;BME280;20617;49.476;10.986;2022-09-28T10:41:29;96470.59;;;12.96;100.00
12879;BME280;20617;49.476;10.986;2022-09-28T10:43:51;96478.91;;;13.01;100.00
12879;BME280;20617;49.476;10.986;2022-09-28T10:46:32;96471.78;;;13.03;100.00
12879;BME280;20617;49.476;10.986;2022-09-28T10:48:49;96475.00;;;12.96;100.00
12879;BME280;20617;49.476;10.986;2022-09-28T10:51:04;96464.13;;;12.68;100.00
12879;BME280;20617;49.476;10.986;2022-09-28T10:53:11;96463.22;;;12.46;100.00
12879;BME280;20617;49.476;10.986;2022-09-28T10:55:39;96453.75;;;12.34;100.00
12879;BME280;20617;49.476;10.986;2022-09-28T10:57:44;96464.75;;;12.38;100.00
12879;BME280;20617;49.476;10.986;2022-09-28T10:59:52;96460.84;;;12.43;100.00
12879;BME280;20617;49.476;10.986;2022-09-28T11:01:59;96465.91;;;12.56;100.00
12879;BME280;20617;49.476;10.986;2022-09-28T11:04:05;96455.84;;;12.63;100.00
12879;BME280;20617;49.476;10.986;2022-09-28T11:06:14;96464.25;;;12.66;100.00
12879;BME280;20617;49.476;10.986;2022-09-28T11:08:24;96455.84;;;12.52;100.00
12879;BME280;20617;49.476;10.986;2022-09-28T11:10:33;96453.56;;;12.69;100.00
12879;BME280;20617;49.476;10.986;2022-09-28T11:12:48;96454.66;;;12.99;100.00
12879;BME280;20617;49.476;10.986;2022-09-28T11:15:00;96450.03;;;13.03;100.00
12879;BME280;20617;49.476;10.986;2022-09-28T11:17:25;96446.28;;;13.28;100.00
12879;BME280;20617;49.476;10.986;2022-09-28T11:19:31;96438.56;;;13.26;100.00
12879;BME280;20617;49.476;10.986;2022-09-28T11:21:42;96443.78;;;13.26;100.00
12879;BME280;20617;49.476;10.986;2022-09-28T11:23:59;96435.78;;;13.07;100.00
12879;BME280;20617;49.476;10.986;2022-09-28T11:26:08;96438.22;;;12.87;100.00
12879;BME280;20617;49.476;10.986;2022-09-28T11:28:23;96450.13;;;12.80;100.00